Time;durP1;ratioP1;P1;durP2;ratioP2;P2;SDS_P1;SDS_P2;PMS_P1;PMS_P2;Temp;Humidity;BMP_temperature;BMP_pressure;BME280_temperature;BME280_humidity;BME280_pressure;Samples;Min_cycle;Max_cycle;Signal;HPM_P1;HPM_P2
2021/08/28 00:00:30;;;;;;;0.68;0.00;;;13.90;99.90;;;;;;5092346;28;20454;-74
2021/08/28 00:02:56;;;;;;;5.97;0.30;;;13.90;99.90;;;;;;5093148;28;20059;-75
2021/08/28 00:05:21;;;;;;;3.70;0.30;;;13.90;99.90;;;;;;5086249;28;20054;-74
2021/08/28 00:07:47;;;;;;;2.08;0.15;;;13.90;99.90;;;;;;5089514;28;20039;-75
2021/08/28 00:10:13;;;;;;;6.07;0.30;;;14.00;99.90;;;;;;5093739;28;20024;-75
2021/08/28 00:12:38;;;;;;;2.13;0.10;;;14.00;99.90;;;;;;5093283;28;20032;-74
2021/08/28 00:15:08;;;;;;;1.45;0.30;;;14.00;99.90;;;;;;5093443;28;20044;-74
2021/08/28 00:17:34;;;;;;;4.05;0.40;;;14.00;99.90;;;;;;5092727;28;20401;-74
2021/08/28 00:20:05;;;;;;;3.00;0.10;;;14.00;99.90;;;;;;5069752;28;20050;-75
2021/08/28 00:22:30;;;;;;;5.50;0.70;;;14.00;99.90;;;;;;5093096;28;20475;-75
2021/08/28 00:24:56;;;;;;;3.92;0.40;;;14.10;99.90;;;;;;5093160;28;20039;-76
2021/08/28 00:27:22;;;;;;;1.45;0.20;;;14.10;99.90;;;;;;5074895;28;20027;-76
2021/08/28 00:29:47;;;;;;;1.50;0.30;;;14.10;99.90;;;;;;5093575;28;20031;-75
2021/08/28 00:32:13;;;;;;;4.22;0.45;;;14.20;99.90;;;;;;5093257;28;20016;-75
2021/08/28 00:34:39;;;;;;;4.35;0.38;;;14.20;99.90;;;;;;5087738;28;20034;-74
2021/08/28 00:37:04;;;;;;;3.88;0.60;;;14.20;99.90;;;;;;5080816;28;20027;-75
2021/08/28 00:39:30;;;;;;;2.17;0.20;;;14.20;99.90;;;;;;5074898;28;20090;-75
2021/08/28 00:41:55;;;;;;;1.05;0.17;;;14.10;99.90;;;;;;5093105;28;20024;-75
2021/08/28 00:44:21;;;;;;;6.57;0.55;;;14.20;99.90;;;;;;5092813;28;20078;-75
2021/08/28 00:46:49;;;;;;;3.17;0.10;;;14.20;99.90;;;;;;5093110;28;20039;-75
2021/08/28 00:49:15;;;;;;;4.85;0.65;;;14.20;99.90;;;;;;5092781;28;20024;-75
2021/08/28 00:51:40;;;;;;;4.13;0.40;;;14.30;99.90;;;;;;5094568;28;20389;-76
2021/08/28 00:54:08;;;;;;;2.33;0.30;;;14.30;99.90;;;;;;5090461;28;20020;-75
2021/08/28 00:56:35;;;;;;;3.50;0.13;;;14.40;99.90;;;;;;5076761;28;20021;-75
2021/08/28 00:59:00;;;;;;;4.05;0.38;;;14.40;99.90;;;;;;5077075;28;20024;-75
2021/08/28 01:01:32;;;;;;;2.97;0.20;;;14.50;99.90;;;;;;5076952;28;20029;-75
2021/08/28 01:04:01;;;;;;;5.75;0.43;;;14.60;99.90;;;;;;5076871;28;20093;-75
2021/08/28 01:06:42;;;;;;;3.33;0.28;;;14.70;99.90;;;;;;5096211;28;20028;-76
2021/08/28 01:09:24;;;;;;;4.57;0.38;;;14.70;99.90;;;;;;5078597;28;20030;-75
2021/08/28 01:12:02;;;;;;;2.42;0.32;;;14.70;99.90;;;;;;5096797;28;20377;-75
2021/08/28 01:14:30;;;;;;;6.80;0.87;;;14.80;99.90;;;;;;5078456;28;20034;-75
2021/08/28 01:17:05;;;;;;;4.63;0.10;;;14.80;99.90;;;;;;5096780;28;20016;-75
2021/08/28 01:19:37;;;;;;;3.28;0.47;;;14.80;99.90;;;;;;5095450;28;20103;-75
2021/08/28 01:22:14;;;;;;;2.97;0.30;;;14.80;99.90;;;;;;5096100;28;20031;-76
2021/08/28 01:24:46;;;;;;;6.27;0.53;;;14.90;99.90;;;;;;5096564;28;20026;-76
2021/08/28 01:27:17;;;;;;;6.57;0.30;;;14.90;99.90;;;;;;5078332;28;20020;-76
2021/08/28 01:29:43;;;;;;;1.17;0.30;;;14.90;99.90;;;;;;5095458;28;20374;-76
2021/08/28 01:32:10;;;;;;;5.45;0.75;;;14.90;99.90;;;;;;5096356;28;20020;-76
2021/08/28 01:34:38;;;;;;;6.65;0.60;;;14.80;99.90;;;;;;5096390;28;20022;-76
2021/08/28 01:37:04;;;;;;;4.00;0.50;;;14.90;99.90;;;;;;5096071;28;20413;-75
2021/08/28 01:39:33;;;;;;;5.45;0.38;;;14.90;99.90;;;;;;5096974;28;20024;-75
2021/08/28 01:42:03;;;;;;;5.68;1.27;;;14.90;99.90;;;;;;5096241;28;20443;-76
2021/08/28 01:44:31;;;;;;;8.68;0.40;;;14.90;99.90;;;;;;5077743;28;20048;-75
2021/08/28 01:46:57;;;;;;;9.27;0.47;;;15.00;99.90;;;;;;5077639;28;20118;-75
2021/08/28 01:49:24;;;;;;;6.85;0.38;;;15.00;99.90;;;;;;5096204;28;20043;-75
2021/08/28 01:51:50;;;;;;;6.63;0.50;;;15.10;99.90;;;;;;5076987;28;20485;-75
2021/08/28 01:54:16;;;;;;;6.45;0.45;;;15.10;99.90;;;;;;5096101;28;20012;-75
2021/08/28 01:56:41;;;;;;;7.60;0.55;;;15.10;99.90;;;;;;5095906;28;20017;-75
2021/08/28 01:59:07;;;;;;;7.63;0.90;;;15.10;99.90;;;;;;5095779;28;20027;-76
2021/08/28 02:01:33;;;;;;;6.50;0.90;;;15.10;99.90;;;;;;5096071;28;20052;-76
2021/08/28 02:03:59;;;;;;;7.03;0.73;;;15.10;99.90;;;;;;5076000;28;20041;-75
2021/08/28 02:06:37;;;;;;;8.20;1.20;;;15.20;99.90;;;;;;5077165;28;20381;-75
2021/08/28 02:09:34;;;;;;;5.10;1.10;;;15.20;99.90;;;;;;5095689;28;20039;-75
2021/08/28 02:12:11;;;;;;;4.50;0.40;;;15.30;99.90;;;;;;5062292;28;20114;-75
2021/08/28 02:14:47;;;;;;;3.17;0.40;;;15.30;99.90;;;;;;5095397;28;20038;-75
2021/08/28 02:17:13;;;;;;;5.45;0.95;;;15.30;99.90;;;;;;5077574;28;20547;-76
2021/08/28 02:19:43;;;;;;;4.35;0.68;;;15.30;99.90;;;;;;5095434;28;20023;-75
2021/08/28 02:22:25;;;;;;;4.10;0.20;;;15.40;99.90;;;;;;5095439;28;20016;-76
2021/08/28 02:24:55;;;;;;;5.68;0.55;;;15.40;99.90;;;;;;5077212;28;20505;-76
2021/08/28 02:27:29;;;;;;;4.80;0.85;;;15.40;99.90;;;;;;5077349;28;20546;-76
2021/08/28 02:30:01;;;;;;;2.83;0.45;;;15.30;99.90;;;;;;5077034;28;20496;-75
2021/08/28 02:32:28;;;;;;;3.92;0.40;;;15.30;99.90;;;;;;5094860;28;20036;-76
2021/08/28 02:34:56;;;;;;;4.68;1.05;;;15.30;99.90;;;;;;5088659;28;20095;-76
2021/08/28 02:37:23;;;;;;;7.25;0.30;;;15.30;99.90;;;;;;5085189;28;20051;-75
2021/08/28 02:39:50;;;;;;;3.25;0.30;;;15.30;99.90;;;;;;5076880;28;20028;-77
2021/08/28 02:42:17;;;;;;;5.40;0.30;;;15.30;99.90;;;;;;5094283;28;20227;-76
2021/08/28 02:44:44;;;;;;;5.50;0.90;;;15.30;99.90;;;;;;5076238;28;20477;-76
2021/08/28 02:47:11;;;;;;;4.55;0.32;;;15.30;99.90;;;;;;5094893;28;20048;-76
2021/08/28 02:49:41;;;;;;;5.93;0.52;;;15.30;99.90;;;;;;5076782;28;20032;-75
2021/08/28 02:52:07;;;;;;;2.78;0.52;;;15.30;99.90;;;;;;5074101;28;20024;-76
2021/08/28 02:54:36;;;;;;;4.25;0.38;;;15.30;99.90;;;;;;5076560;28;20024;-76
2021/08/28 02:57:04;;;;;;;3.90;0.52;;;15.30;99.90;;;;;;5094375;28;20024;-75
2021/08/28 02:59:31;;;;;;;7.18;0.35;;;15.40;99.90;;;;;;5094704;28;20469;-76
2021/08/28 03:01:57;;;;;;;4.00;0.30;;;15.40;99.90;;;;;;5094640;28;20028;-75
2021/08/28 03:04:24;;;;;;;4.30;0.30;;;15.40;99.90;;;;;;5094951;28;20020;-76
2021/08/28 03:06:50;;;;;;;6.90;0.38;;;15.40;99.90;;;;;;5094502;28;20028;-75
2021/08/28 03:09:16;;;;;;;3.75;0.43;;;15.40;99.90;;;;;;5076106;28;20579;-75
2021/08/28 03:11:43;;;;;;;6.05;0.57;;;15.30;99.90;;;;;;5094396;28;20115;-75
2021/08/28 03:14:08;;;;;;;3.38;0.45;;;15.30;99.90;;;;;;5094811;28;20034;-76
2021/08/28 03:16:36;;;;;;;4.22;0.57;;;15.30;99.90;;;;;;5093868;28;20031;-75
2021/08/28 03:19:02;;;;;;;2.17;0.13;;;15.30;99.90;;;;;;5094398;28;20025;-77
2021/08/28 03:21:31;;;;;;;7.60;1.00;;;15.30;99.90;;;;;;5076413;28;20120;-76
2021/08/28 03:23:58;;;;;;;4.40;0.28;;;15.30;99.90;;;;;;5094205;28;20024;-76
2021/08/28 03:26:24;;;;;;;3.15;0.30;;;15.20;99.90;;;;;;5094245;28;20370;-76
2021/08/28 03:28:52;;;;;;;4.50;0.55;;;15.20;99.90;;;;;;5094790;28;20081;-75
2021/08/28 03:31:19;;;;;;;7.07;1.05;;;15.20;99.90;;;;;;5094007;28;20033;-75
2021/08/28 03:33:45;;;;;;;3.13;0.20;;;15.20;99.90;;;;;;5093994;28;20055;-75
2021/08/28 03:36:13;;;;;;;12.02;0.40;;;15.20;99.90;;;;;;5075890;28;20031;-76
2021/08/28 03:38:39;;;;;;;5.55;0.50;;;15.20;99.90;;;;;;5094262;28;20056;-76
2021/08/28 03:41:06;;;;;;;2.97;0.10;;;15.20;99.90;;;;;;5075778;28;20020;-76
2021/08/28 03:43:32;;;;;;;4.32;0.40;;;15.30;99.90;;;;;;5078353;28;20020;-76
2021/08/28 03:45:58;;;;;;;5.43;1.58;;;15.20;99.90;;;;;;5098257;28;20046;-75
2021/08/28 03:48:24;;;;;;;7.63;0.35;;;15.20;99.90;;;;;;5080042;28;20016;-75
2021/08/28 03:50:50;;;;;;;6.15;0.50;;;15.20;99.90;;;;;;5098177;28;20476;-75
2021/08/28 03:53:16;;;;;;;2.65;0.22;;;15.20;99.90;;;;;;5098075;28;20030;-75
2021/08/28 03:55:41;;;;;;;3.75;0.40;;;15.20;99.90;;;;;;5080824;28;20099;-75
2021/08/28 03:58:07;;;;;;;2.85;0.30;;;15.20;99.90;;;;;;5077557;28;20023;-75
2021/08/28 04:00:33;;;;;;;4.00;0.30;;;15.20;99.90;;;;;;5077760;28;20027;-75
2021/08/28 04:02:58;;;;;;;6.70;0.30;;;15.20;99.90;;;;;;5079013;28;20165;-75
2021/08/28 04:05:25;;;;;;;5.13;0.55;;;15.10;99.90;;;;;;5079860;28;20499;-75
2021/08/28 04:07:50;;;;;;;2.50;0.10;;;17.20;99.90;;;;;;5079416;28;20070;-75
2021/08/28 04:10:17;;;;;;;4.28;0.40;;;15.20;99.90;;;;;;5097599;28;20078;-75
2021/08/28 04:12:44;;;;;;;1.90;0.30;;;15.10;99.90;;;;;;5079605;28;20371;-75
2021/08/28 04:15:10;;;;;;;6.00;0.50;;;15.20;99.90;;;;;;5079840;28;20012;-75
2021/08/28 04:17:36;;;;;;;3.80;0.43;;;15.20;99.90;;;;;;5097697;28;20028;-75
2021/08/28 04:20:03;;;;;;;2.85;0.30;;;15.20;99.90;;;;;;5081164;28;20016;-75
2021/08/28 04:22:29;;;;;;;2.72;0.22;;;15.10;99.90;;;;;;5097153;28;20081;-75
2021/08/28 04:24:55;;;;;;;4.95;0.40;;;15.10;99.90;;;;;;5097495;28;20032;-75
2021/08/28 04:27:20;;;;;;;2.90;0.50;;;15.10;99.90;;;;;;5096978;28;20028;-75
2021/08/28 04:29:46;;;;;;;3.30;0.13;;;15.00;99.90;;;;;;5097057;28;20501;-75
2021/08/28 04:32:11;;;;;;;0.98;0.10;;;15.10;99.90;;;;;;5097763;28;20013;-75
2021/08/28 04:34:37;;;;;;;2.42;0.10;;;15.10;99.90;;;;;;5091856;28;20031;-75
2021/08/28 04:37:03;;;;;;;2.40;0.52;;;15.10;99.90;;;;;;5077145;28;20016;-75
2021/08/28 04:39:28;;;;;;;3.85;0.73;;;15.10;99.90;;;;;;5059258;28;20047;-75
2021/08/28 04:41:54;;;;;;;2.38;0.10;;;15.10;99.90;;;;;;5077330;28;20024;-75
2021/08/28 04:44:19;;;;;;;2.25;0.32;;;15.10;99.90;;;;;;5076515;28;20051;-75
2021/08/28 04:46:45;;;;;;;4.53;0.40;;;15.10;99.90;;;;;;5076805;28;20143;-75
2021/08/28 04:49:11;;;;;;;2.40;0.30;;;15.10;99.90;;;;;;5059062;28;20032;-75
2021/08/28 04:51:37;;;;;;;1.40;0.30;;;18.30;99.90;;;;;;5077061;28;20024;-76
2021/08/28 04:54:02;;;;;;;2.50;0.68;;;15.10;99.90;;;;;;5077118;28;20020;-74
2021/08/28 04:56:28;;;;;;;4.35;0.32;;;15.10;99.90;;;;;;5076919;28;20032;-75
2021/08/28 04:58:53;;;;;;;1.48;0.22;;;15.10;99.90;;;;;;5077213;28;20027;-75
2021/08/28 05:01:19;;;;;;;0.98;0.30;;;15.20;99.90;;;;;;5076619;28;20051;-75
2021/08/28 05:03:45;;;;;;;2.88;0.75;;;15.20;99.90;;;;;;5058687;28;20115;-75
2021/08/28 05:06:10;;;;;;;2.03;0.73;;;15.20;99.90;;;;;;5058920;28;20069;-76
2021/08/28 05:08:36;;;;;;;2.97;0.50;;;15.20;99.90;;;;;;5088374;28;20478;-76
2021/08/28 05:11:03;;;;;;;6.07;0.25;;;15.20;99.90;;;;;;5082473;28;20093;-76
2021/08/28 05:13:28;;;;;;;2.75;0.40;;;15.20;99.90;;;;;;5076395;28;20473;-76
2021/08/28 05:15:54;;;;;;;8.40;0.73;;;15.20;99.90;;;;;;5081285;28;20019;-76
2021/08/28 05:18:20;;;;;;;1.70;0.52;;;15.20;99.90;;;;;;5079173;28;20019;-76
2021/08/28 05:20:48;;;;;;;8.48;1.42;;;15.30;99.90;;;;;;5078557;28;20486;-76
2021/08/28 05:23:14;;;;;;;5.95;1.05;;;15.30;99.90;;;;;;5096205;28;20507;-76
2021/08/28 05:25:39;;;;;;;4.25;0.45;;;15.40;99.90;;;;;;5073327;28;20024;-76
2021/08/28 05:28:05;;;;;;;2.92;0.45;;;15.40;99.90;;;;;;5091969;28;20050;-76
2021/08/28 05:30:31;;;;;;;1.55;0.63;;;15.40;99.90;;;;;;5077950;28;20028;-75
2021/08/28 05:32:56;;;;;;;3.50;0.40;;;15.50;99.90;;;;;;5078297;28;20031;-76
2021/08/28 05:35:22;;;;;;;3.83;0.28;;;15.50;99.90;;;;;;5096071;28;20039;-76
2021/08/28 05:37:47;;;;;;;3.20;0.40;;;15.50;99.90;;;;;;5097217;28;20016;-76
2021/08/28 05:40:14;;;;;;;5.40;0.38;;;15.50;99.90;;;;;;5075603;28;20028;-76
2021/08/28 05:42:40;;;;;;;4.45;0.45;;;15.60;99.90;;;;;;5061824;28;20066;-76
2021/08/28 05:45:06;;;;;;;2.85;0.77;;;15.70;99.90;;;;;;5086200;28;20115;-76
2021/08/28 05:47:32;;;;;;;1.70;0.50;;;15.70;99.90;;;;;;5081904;28;20059;-76
2021/08/28 05:49:57;;;;;;;6.47;0.63;;;15.80;99.90;;;;;;5081630;28;20077;-76
2021/08/28 05:52:23;;;;;;;2.65;0.73;;;15.90;99.90;;;;;;5099931;28;20470;-76
2021/08/28 05:54:48;;;;;;;2.58;0.22;;;15.90;99.90;;;;;;5081093;28;20477;-75
2021/08/28 05:57:14;;;;;;;4.88;0.40;;;16.00;99.90;;;;;;5099793;28;20049;-77
2021/08/28 05:59:40;;;;;;;3.03;0.55;;;16.10;99.90;;;;;;5099562;28;20470;-77
2021/08/28 06:02:05;;;;;;;3.58;0.32;;;16.20;99.90;;;;;;5099605;28;20020;-77
2021/08/28 06:04:31;;;;;;;3.70;0.93;;;16.30;99.90;;;;;;5099309;28;20020;-75
2021/08/28 06:06:56;;;;;;;3.28;0.60;;;16.30;99.90;;;;;;5099515;28;20052;-75
2021/08/28 06:09:22;;;;;;;5.30;1.48;;;16.40;99.90;;;;;;5099836;28;20149;-75
2021/08/28 06:11:47;;;;;;;3.53;0.35;;;16.50;99.90;;;;;;5081301;28;20028;-77
2021/08/28 06:14:13;;;;;;;3.08;0.28;;;16.60;99.90;;;;;;5099349;28;20024;-76
2021/08/28 06:16:39;;;;;;;5.13;0.47;;;16.70;99.90;;;;;;5099219;28;20020;-77
2021/08/28 06:19:04;;;;;;;4.30;0.20;;;16.80;99.90;;;;;;5069234;28;20013;-77
2021/08/28 06:21:32;;;;;;;6.05;0.60;;;16.70;99.90;;;;;;5078760;28;20496;-77
2021/08/28 06:23:57;;;;;;;7.03;0.43;;;16.70;99.90;;;;;;5067262;28;20025;-76
2021/08/28 06:26:23;;;;;;;3.08;0.65;;;16.70;99.90;;;;;;5077753;28;20032;-77
2021/08/28 06:28:48;;;;;;;3.60;0.38;;;16.70;99.90;;;;;;5098637;28;20028;-76
2021/08/28 06:31:14;;;;;;;1.75;0.68;;;16.70;99.90;;;;;;5080348;28;20028;-77
2021/08/28 06:33:39;;;;;;;4.32;0.50;;;16.80;99.90;;;;;;5098090;28;20023;-77
2021/08/28 06:36:05;;;;;;;3.58;0.63;;;16.80;99.90;;;;;;5098885;28;20385;-76
2021/08/28 06:38:32;;;;;;;5.93;0.70;;;16.90;99.90;;;;;;5098813;28;20024;-76
2021/08/28 06:40:59;;;;;;;5.20;0.68;;;17.00;99.90;;;;;;5096108;28;20043;-75
2021/08/28 06:43:25;;;;;;;3.03;0.45;;;17.20;99.90;;;;;;5082836;28;20060;-75
2021/08/28 06:45:51;;;;;;;4.65;0.30;;;17.20;99.90;;;;;;5056814;28;20396;-76
2021/08/28 06:48:16;;;;;;;5.07;0.88;;;17.30;99.90;;;;;;5074429;28;20107;-75
2021/08/28 06:50:42;;;;;;;4.43;0.57;;;17.30;99.90;;;;;;5074342;28;20029;-76
2021/08/28 06:53:08;;;;;;;3.63;0.35;;;17.20;99.90;;;;;;5056570;28;20020;-75
2021/08/28 06:55:34;;;;;;;8.98;1.30;;;17.10;99.90;;;;;;5074730;28;20029;-74
2021/08/28 06:57:59;;;;;;;2.28;0.40;;;17.20;99.90;;;;;;5084920;28;20020;-75
2021/08/28 07:00:25;;;;;;;8.38;0.40;;;17.30;99.90;;;;;;5094386;28;20032;-75
2021/08/28 07:02:50;;;;;;;2.70;0.30;;;17.40;99.90;;;;;;5094905;28;20030;-75
2021/08/28 07:05:16;;;;;;;3.17;0.50;;;17.50;99.90;;;;;;5088963;28;20025;-75
2021/08/28 07:07:41;;;;;;;2.53;0.80;;;17.50;99.90;;;;;;5074317;28;20016;-75
2021/08/28 07:10:08;;;;;;;2.70;0.80;;;17.50;99.90;;;;;;5080994;28;20064;-76
2021/08/28 07:12:34;;;;;;;4.50;0.60;;;17.50;99.90;;;;;;5056119;28;20031;-77
2021/08/28 07:15:00;;;;;;;3.35;1.35;;;17.60;99.90;;;;;;5074404;28;20012;-77
2021/08/28 07:17:25;;;;;;;6.10;0.95;;;17.60;99.90;;;;;;5074184;28;20028;-76
2021/08/28 07:19:51;;;;;;;5.57;0.40;;;17.60;99.90;;;;;;5079214;28;20024;-75
2021/08/28 07:22:16;;;;;;;2.35;0.32;;;17.70;99.90;;;;;;5094830;28;20032;-75
2021/08/28 07:24:42;;;;;;;2.67;0.60;;;17.80;99.90;;;;;;5075858;28;20024;-75
2021/08/28 07:27:08;;;;;;;3.95;0.35;;;17.90;99.90;;;;;;5094105;28;20481;-76
2021/08/28 07:29:33;;;;;;;5.40;0.65;;;17.90;99.90;;;;;;5094101;28;20028;-76
2021/08/28 07:31:59;;;;;;;5.97;0.75;;;17.90;99.90;;;;;;5094037;28;20110;-76
2021/08/28 07:34:25;;;;;;;2.25;0.55;;;18.00;99.90;;;;;;5094218;28;20031;-75
2021/08/28 07:36:51;;;;;;;4.03;0.70;;;18.00;99.90;;;;;;5083019;28;20384;-75
2021/08/28 07:39:16;;;;;;;3.45;0.57;;;17.90;99.90;;;;;;5093883;28;20032;-75
2021/08/28 07:41:42;;;;;;;2.10;0.32;;;17.90;99.90;;;;;;5074866;28;20082;-76
2021/08/28 07:44:07;;;;;;;3.67;0.70;;;17.90;99.90;;;;;;5093724;28;20457;-75
2021/08/28 07:46:33;;;;;;;6.63;0.93;;;18.10;99.90;;;;;;5075610;28;20114;-75
2021/08/28 07:48:58;;;;;;;3.22;0.35;;;18.50;99.90;;;;;;5093830;28;20032;-75
2021/08/28 07:51:24;;;;;;;5.55;0.50;;;18.80;99.90;;;;;;5075286;28;20469;-74
2021/08/28 07:53:50;;;;;;;3.15;0.10;;;19.00;99.90;;;;;;5093196;28;20496;-74
2021/08/28 07:56:17;;;;;;;3.85;0.25;;;19.20;99.90;;;;;;5093681;28;20055;-74
2021/08/28 07:58:42;;;;;;;6.47;0.93;;;19.30;99.90;;;;;;5096701;28;20012;-76
2021/08/28 08:01:11;;;;;;;1.02;0.30;;;19.20;99.90;;;;;;5096822;28;20053;-77
2021/08/28 08:03:37;;;;;;;;;;;19.20;99.90;;;;;;5095510;28;20028;-73
2021/08/28 08:06:02;;;;;;;3.33;0.30;;;19.20;99.90;;;;;;5056948;28;19915;-73
2021/08/28 08:08:28;;;;;;;2.50;0.35;;;19.20;99.90;;;;;;5055275;28;20024;-75
2021/08/28 08:10:53;;;;;;;4.18;0.40;;;19.30;99.90;;;;;;5073014;28;20082;-73
2021/08/28 08:13:19;;;;;;;7.40;0.90;;;19.30;99.90;;;;;;5056292;28;20082;-74
2021/08/28 08:15:44;;;;;;;3.53;0.38;;;19.20;99.90;;;;;;5091789;28;20016;-74
2021/08/28 08:18:10;;;;;;;5.95;0.80;;;19.10;99.90;;;;;;5075168;28;20111;-72
2021/08/28 08:20:36;;;;;;;3.25;0.63;;;19.00;99.90;;;;;;5075097;28;20036;-72
2021/08/28 08:23:03;;;;;;;4.88;0.38;;;19.00;99.90;;;;;;5075716;28;20024;-72
2021/08/28 08:25:29;;;;;;;3.10;0.38;;;19.20;99.90;;;;;;5093342;28;20093;-71
2021/08/28 08:27:55;;;;;;;3.70;0.40;;;19.30;99.90;;;;;;5075231;28;20020;-71
2021/08/28 08:30:20;;;;;;;5.65;1.00;;;19.40;99.90;;;;;;5093062;28;20077;-74
2021/08/28 08:32:46;;;;;;;2.08;0.47;;;19.30;99.90;;;;;;5088050;28;20115;-74
2021/08/28 08:35:11;;;;;;;1.77;0.25;;;19.40;99.90;;;;;;5064516;28;20032;-74
2021/08/28 08:37:37;;;;;;;4.88;0.40;;;19.30;99.90;;;;;;5092486;28;20016;-73
2021/08/28 08:40:03;;;;;;;3.22;0.47;;;19.20;99.90;;;;;;5094112;28;20054;-74
2021/08/28 08:42:31;;;;;;;3.88;0.63;;;19.20;99.90;;;;;;5073097;28;20024;-75
2021/08/28 08:44:57;;;;;;;6.80;1.17;;;19.20;99.90;;;;;;5054837;28;20403;-74
2021/08/28 08:47:24;;;;;;;1.90;0.25;;;19.20;99.90;;;;;;5073357;28;20020;-75
2021/08/28 08:49:52;;;;;;;1.85;0.15;;;19.20;99.90;;;;;;5072861;28;20031;-75
2021/08/28 08:52:20;;;;;;;5.07;0.50;;;19.10;99.90;;;;;;5072948;28;20469;-72
2021/08/28 08:54:48;;;;;;;2.87;0.23;;;19.20;99.90;;;;;;5054920;28;20024;-73
2021/08/28 08:57:14;;;;;;;2.80;0.50;;;19.20;99.90;;;;;;5055311;28;20067;-73
2021/08/28 08:59:47;;;;;;;3.28;0.40;;;19.30;99.90;;;;;;5081513;28;20020;-73
2021/08/28 09:02:12;;;;;;;2.85;0.38;;;19.30;99.90;;;;;;5092998;28;20389;-72
2021/08/28 09:04:41;;;;;;;4.43;0.93;;;19.40;99.90;;;;;;5093026;28;20016;-73
2021/08/28 09:07:12;;;;;;;;;;;19.40;99.90;;;;;;5093344;28;20028;-74
2021/08/28 09:09:37;;;;;;;2.63;0.15;;;19.50;99.90;;;;;;5092972;28;20369;-73
2021/08/28 09:12:05;;;;;;;6.40;1.17;;;19.50;99.90;;;;;;5093374;28;20028;-73
2021/08/28 09:14:31;;;;;;;3.30;0.20;;;19.60;99.90;;;;;;5077210;28;20021;-73
2021/08/28 09:17:12;;;;;;;2.13;0.40;;;19.80;99.90;;;;;;5077197;28;20028;-73
2021/08/28 09:19:39;;;;;;;3.08;0.70;;;20.00;99.90;;;;;;5079043;28;20051;-73
2021/08/28 09:22:06;;;;;;;5.15;0.63;;;20.00;99.90;;;;;;5078040;28;20493;-74
2021/08/28 09:24:44;;;;;;;2.90;0.40;;;20.10;99.90;;;;;;5095508;28;20044;-71
2021/08/28 09:27:10;;;;;;;2.80;0.60;;;20.10;99.90;;;;;;5097130;28;20023;-75
2021/08/28 09:29:42;;;;;;;5.35;1.10;;;20.10;99.90;;;;;;5086968;28;20271;-73
2021/08/28 09:32:08;;;;;;;3.63;0.30;;;20.10;99.90;;;;;;5076208;28;20025;-72
2021/08/28 09:34:33;;;;;;;4.07;0.93;;;20.20;99.90;;;;;;5076114;28;20067;-73
2021/08/28 09:37:05;;;;;;;5.68;0.55;;;20.30;99.90;;;;;;5076141;28;20419;-75
2021/08/28 09:39:47;;;;;;;2.13;0.20;;;20.20;99.90;;;;;;5076502;28;20053;-74
2021/08/28 09:42:21;;;;;;;4.78;0.57;;;20.30;99.90;;;;;;5076021;28;20555;-72
2021/08/28 09:44:49;;;;;;;3.33;0.40;;;20.40;99.90;;;;;;5051996;22;20111;-73
2021/08/28 09:47:20;;;;;;;4.30;0.47;;;20.50;99.90;;;;;;5055588;28;20083;-72
2021/08/28 09:49:48;;;;;;;3.60;0.20;;;20.60;99.90;;;;;;5055439;28;20064;-73
2021/08/28 09:52:20;;;;;;;2.75;0.32;;;20.70;99.90;;;;;;5037189;28;20479;-73
2021/08/28 09:54:46;;;;;;;1.42;0.10;;;20.70;99.90;;;;;;5042176;28;20032;-72
2021/08/28 09:57:12;;;;;;;8.63;0.80;;;20.80;99.90;;;;;;5055801;28;20100;-75
2021/08/28 09:59:38;;;;;;;2.28;0.52;;;21.00;99.90;;;;;;5056063;28;20031;-75
2021/08/28 10:02:10;;;;;;;3.47;0.55;;;21.00;99.90;;;;;;5055453;28;20104;-73
2021/08/28 10:04:50;;;;;;;2.97;0.30;;;21.00;99.90;;;;;;5052159;28;20013;-74
2021/08/28 10:07:19;;;;;;;1.98;0.10;;;20.90;99.90;;;;;;5055333;28;20029;-74
2021/08/28 10:09:45;;;;;;;2.25;0.35;;;20.70;99.90;;;;;;5055784;28;20029;-72
2021/08/28 10:12:12;;;;;;;1.42;0.38;;;20.50;99.90;;;;;;5055638;28;20431;-73
2021/08/28 10:14:37;;;;;;;2.63;0.20;;;20.30;99.90;;;;;;5102581;22;20493;-74
2021/08/28 10:17:03;;;;;;;2.42;0.20;;;20.20;99.90;;;;;;5088383;28;20077;-73
2021/08/28 10:19:31;;;;;;;1.48;0.28;;;20.10;99.90;;;;;;5092433;28;20031;-73
2021/08/28 10:21:57;;;;;;;1.65;0.30;;;20.10;99.90;;;;;;5117146;22;20103;-74
2021/08/28 10:24:23;;;;;;;1.85;0.30;;;20.20;99.90;;;;;;5094707;28;20028;-72
2021/08/28 10:26:50;;;;;;;4.00;0.20;;;20.50;99.90;;;;;;5107375;22;20063;-72
2021/08/28 10:29:16;;;;;;;2.55;0.40;;;20.70;99.90;;;;;;5093444;28;20035;-72
2021/08/28 10:31:43;;;;;;;1.75;0.20;;;20.80;99.90;;;;;;5076955;28;20028;-72
2021/08/28 10:34:09;;;;;;;2.15;0.57;;;21.20;99.90;;;;;;5094949;28;20024;-72
2021/08/28 10:36:36;;;;;;;0.82;0.20;;;21.40;99.90;;;;;;5074700;28;20025;-72
2021/08/28 10:39:04;;;;;;;4.68;0.20;;;21.40;99.90;;;;;;5055117;28;20025;-73
2021/08/28 10:41:31;;;;;;;2.45;0.10;;;21.50;99.90;;;;;;5056958;28;20478;-73
2021/08/28 10:43:58;;;;;;;1.92;0.15;;;21.60;99.90;;;;;;5056027;28;20017;-75
2021/08/28 10:46:28;;;;;;;4.13;0.38;;;21.90;99.90;;;;;;5048179;28;20036;-73
2021/08/28 10:49:01;;;;;;;4.57;0.25;;;22.10;99.90;;;;;;5065873;28;20029;-73
2021/08/28 10:51:33;;;;;;;3.35;0.50;;;22.10;99.90;;;;;;5071383;28;20118;-73
2021/08/28 10:54:03;;;;;;;5.88;0.40;;;21.90;99.90;;;;;;5040807;28;20028;-76
2021/08/28 10:56:51;;;;;;;3.08;0.95;;;21.90;99.90;;;;;;5066720;28;20024;-74
2021/08/28 10:59:36;;;;;;;0.93;0.05;;;21.80;99.90;;;;;;5069667;28;20504;-73
2021/08/28 11:02:11;;;;;;;1.95;0.40;;;21.60;99.90;;;;;;5041975;28;20464;-73
2021/08/28 11:04:41;;;;;;;3.40;0.20;;;21.40;99.90;;;;;;5063121;28;20052;-73
2021/08/28 11:07:20;;;;;;;2.67;0.10;;;21.20;99.90;;;;;;5055776;28;20041;-73
2021/08/28 11:10:05;;;;;;;1.88;0.40;;;21.20;99.90;;;;;;5055206;28;20063;-73
2021/08/28 11:12:46;;;;;;;0.43;0.20;;;21.20;99.90;;;;;;5056278;28;20087;-73
2021/08/28 11:15:30;;;;;;;1.75;0.00;;;21.40;99.90;;;;;;5061805;28;20378;-72
2021/08/28 11:18:04;;;;;;;4.03;0.20;;;21.60;99.90;;;;;;5088006;22;20078;-72
2021/08/28 11:20:35;;;;;;;1.50;0.28;;;21.70;99.90;;;;;;5094180;28;20123;-76
2021/08/28 11:23:02;;;;;;;4.50;0.38;;;21.80;99.90;;;;;;5082900;28;20097;-73
2021/08/28 11:25:32;;;;;;;3.05;0.65;;;22.00;99.90;;;;;;5093341;28;20031;-73
2021/08/28 11:27:59;;;;;;;1.83;0.10;;;22.00;99.90;;;;;;5094195;28;20031;-73
2021/08/28 11:30:45;;;;;;;5.10;0.10;;;22.20;99.90;;;;;;5097773;28;20020;-73
2021/08/28 11:33:11;;;;;;;1.63;0.20;;;22.40;99.90;;;;;;5091694;28;20039;-72
2021/08/28 11:35:41;;;;;;;2.33;0.32;;;22.70;99.90;;;;;;5075411;28;20540;-72
2021/08/28 11:38:08;;;;;;;4.30;0.10;;;22.60;99.90;;;;;;5082241;28;20111;-74
2021/08/28 11:40:36;;;;;;;;;;;22.40;99.90;;;;;;5076723;28;20052;-75
2021/08/28 11:43:03;;;;;;;0.90;0.20;;;22.30;99.90;;;;;;5093843;28;20367;-74
2021/08/28 11:45:32;;;;;;;2.15;0.40;;;22.30;99.90;;;;;;5094414;28;20020;-74
2021/08/28 11:47:58;;;;;;;2.67;0.10;;;22.10;99.90;;;;;;5093687;28;20107;-73
2021/08/28 11:50:31;;;;;;;3.83;0.13;;;21.90;99.90;;;;;;5091432;28;20448;-73
2021/08/28 11:52:57;;;;;;;2.67;0.50;;;21.60;99.90;;;;;;5093354;28;20544;-73
2021/08/28 11:55:23;;;;;;;1.23;0.10;;;21.30;99.90;;;;;;5093555;28;20020;-74
2021/08/28 11:58:07;;;;;;;1.20;0.10;;;21.30;99.90;;;;;;5093699;28;20016;-75
2021/08/28 12:00:34;;;;;;;1.48;0.30;;;21.60;99.90;;;;;;5093988;28;20032;-73
2021/08/28 12:03:00;;;;;;;1.52;0.17;;;21.90;99.90;;;;;;5074182;28;20028;-75
2021/08/28 12:05:29;;;;;;;5.53;0.40;;;22.40;99.90;;;;;;5093604;28;20048;-75
2021/08/28 12:07:54;;;;;;;2.30;0.10;;;22.80;99.90;;;;;;5093694;28;20020;-75
2021/08/28 12:10:21;;;;;;;3.47;0.65;;;23.00;99.90;;;;;;5097520;28;20030;-75
2021/08/28 12:12:58;;;;;;;2.15;0.08;;;23.20;99.90;;;;;;5097532;28;20027;-75
2021/08/28 12:15:24;;;;;;;1.45;0.00;;;23.20;99.70;;;;;;5098119;28;20035;-75
2021/08/28 12:17:51;;;;;;;0.55;0.03;;;23.40;96.20;;;;;;5097219;28;20020;-75
2021/08/28 12:20:32;;;;;;;0.40;0.10;;;23.30;97.60;;;;;;5097746;28;20386;-75
2021/08/28 12:22:59;;;;;;;2.97;0.10;;;23.30;98.10;;;;;;5097748;28;20024;-75
2021/08/28 12:25:26;;;;;;;2.80;0.10;;;23.00;94.70;;;;;;5079050;28;20035;-75
2021/08/28 12:27:52;;;;;;;2.20;0.32;;;22.80;97.80;;;;;;5097446;28;20056;-75
2021/08/28 12:30:21;;;;;;;3.70;0.28;;;22.60;97.00;;;;;;5079946;28;20027;-75
2021/08/28 12:32:48;;;;;;;1.83;0.10;;;22.30;96.80;;;;;;5097351;28;20028;-75
2021/08/28 12:35:14;;;;;;;1.50;0.17;;;22.00;98.60;;;;;;5078860;28;20016;-75
2021/08/28 12:37:40;;;;;;;1.33;0.20;;;21.80;99.90;;;;;;5096724;28;20023;-75
2021/08/28 12:40:14;;;;;;;1.63;0.40;;;21.50;99.90;;;;;;5097295;28;20027;-74
2021/08/28 12:42:43;;;;;;;5.32;0.55;;;21.20;99.60;;;;;;5095565;28;20031;-74
2021/08/28 12:45:17;;;;;;;0.43;0.25;;;21.00;99.90;;;;;;5094017;28;20028;-76
2021/08/28 12:47:45;;;;;;;4.50;0.28;;;21.10;99.90;;;;;;5098790;28;20028;-75
2021/08/28 12:50:13;;;;;;;2.85;0.13;;;21.50;99.90;;;;;;5101267;28;20163;-75